createdAt,value
2018-03-28T00:02:19.958Z,2.40
2018-03-28T00:04:49.817Z,2.30
2018-03-28T00:07:19.007Z,2.30
2018-03-28T00:09:48.890Z,2.40
2018-03-28T00:12:17.966Z,2.40
2018-03-28T00:14:47.154Z,2.40
2018-03-28T00:17:17.015Z,2.30
2018-03-28T00:19:46.082Z,2.30
2018-03-28T00:22:15.229Z,2.30
2018-03-28T00:24:44.299Z,2.20
2018-03-28T00:27:13.402Z,2.20
2018-03-28T00:29:42.490Z,2.20
2018-03-28T00:32:11.561Z,2.20
2018-03-28T00:34:41.454Z,2.20
2018-03-28T00:37:11.343Z,2.20
2018-03-28T00:39:40.657Z,2.20
2018-03-28T00:42:09.721Z,2.20
2018-03-28T00:44:39.577Z,2.10
2018-03-28T00:47:09.848Z,2.10
2018-03-28T00:49:39.685Z,2.10
2018-03-28T00:52:08.775Z,2.10
2018-03-28T00:54:38.670Z,2.10
2018-03-28T00:57:07.735Z,2.10
2018-03-28T00:59:36.814Z,2.10
2018-03-28T01:02:05.899Z,2.10
2018-03-28T01:04:34.991Z,2.20
2018-03-28T01:07:04.825Z,2.10
2018-03-28T01:09:34.653Z,2.10
2018-03-28T01:12:04.550Z,2.10
2018-03-28T01:14:33.633Z,2.10
2018-03-28T01:17:02.762Z,2.10
2018-03-28T01:19:31.892Z,2.10
2018-03-28T01:22:00.967Z,2.10
2018-03-28T01:24:30.133Z,2.00
2018-03-28T01:26:59.970Z,2.00
2018-03-28T01:29:29.889Z,2.10
2018-03-28T01:31:59.730Z,2.10
2018-03-28T01:34:28.838Z,2.00
2018-03-28T01:36:58.673Z,2.20
2018-03-28T01:39:27.763Z,2.10
2018-03-28T01:41:57.598Z,2.10
2018-03-28T01:44:27.567Z,2.10
2018-03-28T01:46:56.826Z,2.10
2018-03-28T01:49:26.678Z,2.20
2018-03-28T01:51:56.561Z,2.20
2018-03-28T01:54:25.646Z,2.20
2018-03-28T01:56:54.778Z,2.10
2018-03-28T01:59:23.849Z,2.10
2018-03-28T02:01:52.994Z,2.10
2018-03-28T02:04:22.069Z,2.20
2018-03-28T02:06:51.153Z,2.20
2018-03-28T02:09:20.994Z,2.20
2018-03-28T02:11:50.864Z,2.10
2018-03-28T02:14:19.927Z,2.10
2018-03-28T02:16:49.768Z,2.10
2018-03-28T02:19:18.846Z,2.10
2018-03-28T02:21:47.927Z,2.10
2018-03-28T02:24:17.002Z,2.10
2018-03-28T02:26:46.617Z,2.20
2018-03-28T02:29:15.766Z,2.20
2018-03-28T02:31:44.847Z,2.20
2018-03-28T02:34:13.958Z,2.10
2018-03-28T02:36:43.060Z,2.10
2018-03-28T02:39:12.236Z,2.20
2018-03-28T02:41:41.312Z,2.20
2018-03-28T02:44:10.396Z,2.20
2018-03-28T02:46:39.470Z,2.20
2018-03-28T02:49:08.550Z,2.30
2018-03-28T02:51:37.683Z,2.20
2018-03-28T02:54:06.855Z,2.30
2018-03-28T02:56:35.946Z,2.30
2018-03-28T02:59:05.955Z,2.30
2018-03-28T03:01:35.830Z,2.30
2018-03-28T03:04:04.907Z,2.30
2018-03-28T03:06:34.862Z,2.30
2018-03-28T03:09:03.926Z,2.30
2018-03-28T03:11:33.085Z,2.30
2018-03-28T03:14:02.162Z,2.40
2018-03-28T03:16:32.039Z,2.40
2018-03-28T03:19:01.109Z,2.30
2018-03-28T03:21:30.944Z,2.40
2018-03-28T03:24:00.015Z,2.40
2018-03-28T03:26:29.117Z,2.50
2018-03-28T03:28:58.442Z,2.50
2018-03-28T03:31:27.586Z,2.40
2018-03-28T03:33:56.662Z,2.40
2018-03-28T03:36:25.767Z,2.40
2018-03-28T03:38:54.870Z,2.40
2018-03-28T03:41:23.941Z,2.40
2018-03-28T03:43:53.017Z,2.40
2018-03-28T03:46:22.909Z,2.30
2018-03-28T03:48:51.978Z,2.30
2018-03-28T03:51:21.045Z,2.30
2018-03-28T03:53:50.146Z,2.40
2018-03-28T03:56:19.222Z,2.40
2018-03-28T03:58:48.397Z,2.30
2018-03-28T04:01:17.448Z,2.30
2018-03-28T04:03:46.523Z,2.40
2018-03-28T04:06:16.370Z,2.30
2018-03-28T04:08:45.474Z,2.30
2018-03-28T04:11:14.739Z,2.30
2018-03-28T04:13:43.823Z,2.40
2018-03-28T04:16:12.946Z,2.40
2018-03-28T04:18:42.040Z,2.40
2018-03-28T04:21:11.166Z,2.50
2018-03-28T04:23:40.243Z,2.40
2018-03-28T04:26:09.314Z,2.40
2018-03-28T04:28:38.431Z,2.50
2018-03-28T04:31:07.506Z,2.50
2018-03-28T04:33:36.580Z,2.40
2018-03-28T04:36:05.650Z,2.40
2018-03-28T04:38:34.728Z,2.40
2018-03-28T04:41:03.806Z,2.40
2018-03-28T04:43:32.925Z,2.40
2018-03-28T04:46:02.003Z,2.30
2018-03-28T04:48:31.074Z,2.40
2018-03-28T04:51:00.146Z,2.50
2018-03-28T04:53:29.213Z,2.50
2018-03-28T04:55:58.290Z,2.40
2018-03-28T04:58:27.430Z,2.40
2018-03-28T05:00:56.506Z,2.40
2018-03-28T05:03:25.579Z,2.40
2018-03-28T05:05:55.538Z,2.30
2018-03-28T05:08:24.610Z,2.30
2018-03-28T05:10:53.695Z,2.40
2018-03-28T05:13:22.767Z,2.40
2018-03-28T05:15:52.091Z,2.40
2018-03-28T05:18:21.166Z,2.40
2018-03-28T05:20:51.026Z,2.50
2018-03-28T05:23:20.136Z,2.40
2018-03-28T05:25:49.211Z,2.50
2018-03-28T05:28:19.050Z,2.40
2018-03-28T05:30:48.885Z,2.40
2018-03-28T05:33:17.957Z,2.40
2018-03-28T05:35:47.083Z,2.40
2018-03-28T05:38:17.047Z,2.40
2018-03-28T05:40:46.120Z,2.40
2018-03-28T05:43:15.962Z,2.40
2018-03-28T05:45:45.802Z,2.50
2018-03-28T05:48:14.947Z,2.50
2018-03-28T05:50:44.066Z,2.50
2018-03-28T05:53:13.135Z,2.50
2018-03-28T05:55:42.209Z,2.50
2018-03-28T05:58:11.367Z,2.40
2018-03-28T06:00:40.454Z,2.50
2018-03-28T06:03:10.405Z,2.40
2018-03-28T06:05:39.475Z,2.40
2018-03-28T06:08:08.546Z,2.40
2018-03-28T06:10:37.615Z,2.40
2018-03-28T06:13:07.453Z,2.30
2018-03-28T06:15:36.602Z,2.30
2018-03-28T06:18:05.681Z,2.30
2018-03-28T06:20:34.757Z,2.20
2018-03-28T06:23:04.602Z,2.20
2018-03-28T06:25:33.682Z,2.20
2018-03-28T06:28:02.754Z,2.20
2018-03-28T06:30:31.890Z,2.20
2018-03-28T06:33:00.965Z,2.20
2018-03-28T06:35:30.033Z,2.20
2018-03-28T06:37:59.164Z,2.30
2018-03-28T06:40:28.276Z,2.30
2018-03-28T06:42:57.402Z,2.40
2018-03-28T06:45:26.479Z,2.30
2018-03-28T06:47:56.314Z,2.20
2018-03-28T06:50:26.151Z,2.20
2018-03-28T06:52:56.041Z,2.20
2018-03-28T06:55:25.150Z,2.20
2018-03-28T06:57:55.724Z,2.30
2018-03-28T07:00:25.561Z,2.30
2018-03-28T07:02:55.434Z,2.30
2018-03-28T07:05:24.532Z,2.30
2018-03-28T07:07:53.614Z,2.30
2018-03-28T07:10:22.689Z,2.40
2018-03-28T07:12:51.763Z,2.30
2018-03-28T07:15:20.838Z,2.30
2018-03-28T07:17:50.699Z,2.30
2018-03-28T07:20:19.766Z,2.30
2018-03-28T07:22:49.837Z,2.40
2018-03-28T07:25:18.902Z,2.30
2018-03-28T07:27:48.766Z,2.40
2018-03-28T07:30:17.843Z,2.40
2018-03-28T07:32:47.741Z,2.40
2018-03-28T07:35:16.853Z,2.40
2018-03-28T07:37:45.922Z,2.40
2018-03-28T07:40:14.997Z,2.50
2018-03-28T07:42:44.842Z,2.50
2018-03-28T07:45:14.677Z,2.50
2018-03-28T07:47:43.752Z,2.50
2018-03-28T07:50:12.885Z,2.40
2018-03-28T07:52:42.722Z,2.30
2018-03-28T07:55:12.065Z,2.30
2018-03-28T07:57:41.166Z,2.40
2018-03-28T08:00:10.275Z,2.40
2018-03-28T08:02:39.345Z,2.40
2018-03-28T08:05:08.417Z,2.40
2018-03-28T08:07:37.526Z,2.30
2018-03-28T08:10:06.592Z,2.40
2018-03-28T08:12:36.486Z,2.40
2018-03-28T08:15:05.727Z,2.40
2018-03-28T08:17:35.585Z,2.40
2018-03-28T08:20:04.717Z,2.40
2018-03-28T08:22:33.810Z,2.40
2018-03-28T08:25:02.931Z,2.40
2018-03-28T08:27:32.001Z,2.40
2018-03-28T08:30:01.853Z,2.40
2018-03-28T08:32:30.925Z,2.40
2018-03-28T08:35:00.011Z,2.40
2018-03-28T08:37:29.082Z,2.40
2018-03-28T08:39:58.157Z,2.50
2018-03-28T08:42:28.040Z,2.50
2018-03-28T08:44:57.885Z,2.60
2018-03-28T08:47:27.014Z,2.60
2018-03-28T08:49:56.158Z,2.60
2018-03-28T08:52:25.224Z,2.60
2018-03-28T08:54:54.297Z,2.60
2018-03-28T08:57:23.383Z,2.50
2018-03-28T08:59:52.466Z,2.50
2018-03-28T09:02:21.618Z,2.60
2018-03-28T09:04:50.702Z,2.50
2018-03-28T09:07:20.554Z,2.60
2018-03-28T09:09:49.630Z,2.60
2018-03-28T09:12:18.712Z,2.70
2018-03-28T09:14:48.614Z,2.70
2018-03-28T09:17:17.762Z,2.70
2018-03-28T09:19:46.922Z,2.70
2018-03-28T09:22:16.897Z,2.80
2018-03-28T09:24:45.982Z,2.80
2018-03-28T09:27:15.057Z,2.80
2018-03-28T09:29:44.911Z,2.80
2018-03-28T09:32:14.045Z,2.80
2018-03-28T09:34:43.551Z,2.90
2018-03-28T09:37:12.695Z,2.90
2018-03-28T09:39:41.770Z,2.90
2018-03-28T09:42:11.116Z,2.90
2018-03-28T09:44:40.193Z,2.90
2018-03-28T09:47:09.327Z,2.90
2018-03-28T09:49:38.402Z,2.80
2018-03-28T09:52:07.480Z,2.80
2018-03-28T09:54:37.378Z,2.70
2018-03-28T09:57:06.566Z,2.70
2018-03-28T09:59:35.684Z,2.60
2018-03-28T10:02:10.679Z,2.60
2018-03-28T10:04:45.361Z,2.70
2018-03-28T10:07:14.435Z,2.70
2018-03-28T10:09:44.362Z,2.70
2018-03-28T10:12:14.193Z,2.70
2018-03-28T10:14:44.026Z,2.70
2018-03-28T10:17:13.862Z,2.80
2018-03-28T10:19:42.939Z,2.80
2018-03-28T10:22:12.014Z,2.70
2018-03-28T10:24:41.087Z,2.70
2018-03-28T10:27:10.926Z,2.70
2018-03-28T10:29:39.993Z,2.70
2018-03-28T10:32:09.069Z,2.70
2018-03-28T10:34:38.138Z,2.80
2018-03-28T10:37:07.978Z,2.80
2018-03-28T10:39:37.778Z,2.80
2018-03-28T10:42:06.883Z,2.80
2018-03-28T10:44:35.951Z,2.90
2018-03-28T10:47:05.021Z,2.80
2018-03-28T10:49:35.078Z,2.80
2018-03-28T10:52:04.146Z,2.80
2018-03-28T10:54:33.414Z,2.80
2018-03-28T10:57:02.509Z,2.80
2018-03-28T10:59:31.614Z,2.80
2018-03-28T11:02:00.682Z,2.90
2018-03-28T11:04:29.791Z,2.80
2018-03-28T11:07:00.403Z,2.80
2018-03-28T11:09:29.548Z,2.80
2018-03-28T11:11:58.617Z,2.80
2018-03-28T11:14:27.719Z,2.70
2018-03-28T11:16:56.849Z,2.70
2018-03-28T11:19:25.922Z,2.80
2018-03-28T11:21:55.754Z,2.80
2018-03-28T11:24:25.646Z,2.70
2018-03-28T11:26:54.689Z,2.70
2018-03-28T11:29:24.522Z,2.70
2018-03-28T11:31:53.594Z,2.70
2018-03-28T11:34:22.661Z,2.70
2018-03-28T11:36:51.734Z,2.80
2018-03-28T11:39:21.618Z,2.80
2018-03-28T11:41:50.690Z,2.80
2018-03-28T11:44:19.768Z,2.80
2018-03-28T11:46:49.025Z,2.90
2018-03-28T11:49:18.099Z,2.80
2018-03-28T11:51:47.942Z,2.80
2018-03-28T11:54:17.783Z,2.90
2018-03-28T11:56:46.901Z,2.90
2018-03-28T11:59:15.981Z,2.80
2018-03-28T12:01:45.882Z,3.00
2018-03-28T12:04:14.954Z,3.00
2018-03-28T12:06:44.028Z,3.00
2018-03-28T12:09:13.934Z,3.10
2018-03-28T12:11:42.998Z,3.10
2018-03-28T12:14:12.076Z,3.10
2018-03-28T12:16:41.949Z,3.20
2018-03-28T12:19:11.081Z,3.20
2018-03-28T12:21:40.146Z,3.10
2018-03-28T12:24:09.219Z,3.20
2018-03-28T12:26:38.314Z,3.20
2018-03-28T12:29:07.433Z,3.10
2018-03-28T12:31:36.504Z,2.90
2018-03-28T12:34:05.574Z,3.10
2018-03-28T12:36:35.429Z,3.00
2018-03-28T12:39:04.514Z,3.00
2018-03-28T12:41:34.351Z,3.00
2018-03-28T12:44:03.430Z,3.00
2018-03-28T12:46:32.505Z,3.00
2018-03-28T12:49:01.586Z,3.00
2018-03-28T12:51:31.447Z,3.10
2018-03-28T12:54:00.614Z,3.00
2018-03-28T12:56:30.483Z,2.90
2018-03-28T12:58:59.699Z,2.90
2018-03-28T13:01:28.771Z,3.10
2018-03-28T13:03:58.643Z,3.00
2018-03-28T13:06:27.722Z,3.00
2018-03-28T13:08:56.854Z,3.00
2018-03-28T13:11:25.914Z,3.00
2018-03-28T13:13:54.985Z,3.00
2018-03-28T13:16:25.353Z,2.90
2018-03-28T13:18:54.615Z,2.90
2018-03-28T13:21:23.686Z,3.00
2018-03-28T13:23:53.778Z,2.90
2018-03-28T13:26:22.850Z,2.70
2018-03-28T13:28:52.693Z,2.90
2018-03-28T13:31:21.787Z,2.90
2018-03-28T13:33:50.918Z,2.90
2018-03-28T13:36:20.025Z,2.90
2018-03-28T13:38:49.131Z,3.10
2018-03-28T13:41:18.219Z,3.00
2018-03-28T13:43:48.078Z,3.00
2018-03-28T13:46:17.185Z,3.00
2018-03-28T13:48:46.281Z,3.10
2018-03-28T13:51:16.109Z,3.10
2018-03-28T13:53:45.327Z,3.20
2018-03-28T13:56:15.138Z,3.20
2018-03-28T13:58:44.970Z,3.40
2018-03-28T14:01:14.798Z,3.40
2018-03-28T14:03:44.639Z,3.30
2018-03-28T14:06:13.730Z,3.30
2018-03-28T14:08:44.274Z,3.30
2018-03-28T14:11:13.406Z,3.30
2018-03-28T14:13:42.473Z,3.40
2018-03-28T14:16:11.533Z,3.30
2018-03-28T14:18:40.707Z,3.30
2018-03-28T14:21:09.794Z,3.20
2018-03-28T14:23:38.878Z,3.20
2018-03-28T14:26:07.938Z,3.00
2018-03-28T14:28:37.829Z,3.00
2018-03-28T14:31:07.217Z,3.00
2018-03-28T14:33:36.278Z,3.00
2018-03-28T14:36:05.338Z,3.10
2018-03-28T14:38:34.405Z,3.10
2018-03-28T14:41:03.575Z,3.00
2018-03-28T14:43:32.657Z,3.00
2018-03-28T14:46:01.722Z,3.00
2018-03-28T14:48:30.856Z,3.00
2018-03-28T14:51:00.690Z,3.10
2018-03-28T14:53:30.521Z,3.20
2018-03-28T14:56:00.357Z,3.20
2018-03-28T14:58:29.417Z,3.20
2018-03-28T15:00:59.402Z,3.20
2018-03-28T15:03:28.629Z,3.20
2018-03-28T15:05:57.879Z,3.30
2018-03-28T15:08:26.994Z,3.20
2018-03-28T15:10:56.066Z,3.20
2018-03-28T15:13:25.138Z,3.30
2018-03-28T15:15:54.997Z,3.20
2018-03-28T15:18:24.134Z,3.20
2018-03-28T15:20:53.961Z,3.10
2018-03-28T15:23:23.070Z,3.10
2018-03-28T15:25:52.138Z,3.10
2018-03-28T15:28:21.977Z,3.10
2018-03-28T15:30:51.042Z,3.00
2018-03-28T15:33:20.110Z,3.10
2018-03-28T15:35:49.172Z,3.20
2018-03-28T15:38:18.321Z,3.20
2018-03-28T15:40:47.417Z,3.30
2018-03-28T15:43:16.524Z,3.20
2018-03-28T15:45:46.356Z,3.10
2018-03-28T15:48:15.418Z,3.10
2018-03-28T15:50:44.503Z,3.10
2018-03-28T15:53:13.567Z,3.20
2018-03-28T15:55:43.446Z,3.10
2018-03-28T15:58:12.509Z,3.00
2018-03-28T16:00:42.346Z,3.00
2018-03-28T16:03:12.177Z,3.00
2018-03-28T16:05:41.250Z,3.00
2018-03-28T16:08:10.312Z,3.00
2018-03-28T16:10:39.378Z,3.00
2018-03-28T16:13:08.558Z,2.90
2018-03-28T16:15:37.621Z,2.90
2018-03-28T16:18:07.527Z,2.80
2018-03-28T16:20:36.602Z,2.80
2018-03-28T16:23:05.670Z,2.90
2018-03-28T16:25:35.501Z,2.80
2018-03-28T16:28:05.325Z,2.90
2018-03-28T16:30:35.155Z,2.80
2018-03-28T16:33:04.994Z,2.80
2018-03-28T16:35:34.134Z,2.80
2018-03-28T16:38:03.199Z,2.90
2018-03-28T16:40:33.030Z,2.80
2018-03-28T16:43:02.865Z,2.90
2018-03-28T16:45:32.010Z,2.80
2018-03-28T16:48:01.885Z,2.80
2018-03-28T16:50:31.761Z,2.80
2018-03-28T16:53:00.830Z,2.80
2018-03-28T16:55:30.674Z,2.80
2018-03-28T16:57:59.761Z,2.80
2018-03-28T17:00:29.633Z,2.80
2018-03-28T17:02:58.718Z,2.80
2018-03-28T17:05:27.786Z,2.80
2018-03-28T17:07:56.851Z,2.80
2018-03-28T17:10:25.918Z,2.80
2018-03-28T17:12:55.781Z,2.80
2018-03-28T17:15:24.861Z,2.70
2018-03-28T17:17:54.749Z,2.80
2018-03-28T17:20:24.594Z,2.80
2018-03-28T17:22:53.723Z,2.80
2018-03-28T17:25:22.866Z,2.80
2018-03-28T17:27:52.119Z,2.80
2018-03-28T17:30:21.200Z,2.80
2018-03-28T17:32:50.323Z,2.80
2018-03-28T17:35:19.446Z,2.70
2018-03-28T17:37:48.521Z,2.70
2018-03-28T17:40:17.646Z,2.80
2018-03-28T17:42:46.714Z,2.80
2018-03-28T17:45:15.818Z,2.80
2018-03-28T17:47:45.670Z,2.80
2018-03-28T17:50:14.781Z,2.80
2018-03-28T17:52:44.363Z,2.80
2018-03-28T17:55:13.432Z,2.80
2018-03-28T17:57:42.520Z,2.80
2018-03-28T18:00:12.356Z,2.90
2018-03-28T18:02:41.434Z,2.90
2018-03-28T18:05:10.501Z,2.80
2018-03-28T18:07:39.582Z,2.80
2018-03-28T18:10:08.678Z,2.80
2018-03-28T18:12:38.538Z,2.80
2018-03-28T18:15:07.602Z,2.80
2018-03-28T18:17:36.666Z,2.90
2018-03-28T18:20:05.729Z,2.80
2018-03-28T18:22:35.572Z,2.80
2018-03-28T18:25:04.651Z,2.90
2018-03-28T18:27:33.765Z,2.80
2018-03-28T18:30:02.818Z,2.90
2018-03-28T18:32:31.913Z,2.80
2018-03-28T18:35:01.773Z,2.90
2018-03-28T18:37:30.840Z,2.90
2018-03-28T18:40:00.744Z,2.90
2018-03-28T18:42:30.788Z,2.80
2018-03-28T18:44:59.892Z,2.80
2018-03-28T18:47:28.954Z,2.80
2018-03-28T18:49:58.028Z,2.90
2018-03-28T18:52:27.872Z,2.90
2018-03-28T18:54:56.937Z,2.90
2018-03-28T18:57:26.069Z,2.90
2018-03-28T18:59:55.148Z,2.90
2018-03-28T19:02:24.279Z,2.90
2018-03-28T19:04:53.351Z,2.90
2018-03-28T19:07:22.456Z,2.90
2018-03-28T19:09:51.535Z,2.90
2018-03-28T19:12:21.417Z,2.90
2018-03-28T19:14:50.490Z,2.90
2018-03-28T19:17:19.566Z,2.90
2018-03-28T19:19:48.642Z,2.90
2018-03-28T19:22:17.716Z,3.00
2018-03-28T19:24:46.824Z,3.00
2018-03-28T19:27:15.900Z,2.90
2018-03-28T19:29:44.978Z,3.00
2018-03-28T19:32:14.047Z,3.00
2018-03-28T19:34:43.122Z,3.00
2018-03-28T19:37:12.255Z,2.90
2018-03-28T19:39:42.099Z,2.90
2018-03-28T19:42:11.175Z,2.90
2018-03-28T19:44:40.282Z,2.90
2018-03-28T19:47:09.509Z,2.90
2018-03-28T19:49:39.356Z,2.90
2018-03-28T19:52:09.279Z,2.90
2018-03-28T19:54:39.123Z,2.90
2018-03-28T19:57:08.201Z,2.90
2018-03-28T19:59:37.967Z,2.90
2018-03-28T20:02:07.078Z,2.90
2018-03-28T20:04:36.217Z,3.00
2018-03-28T20:07:05.295Z,3.00
2018-03-28T20:09:34.430Z,3.00
2018-03-28T20:12:03.511Z,3.00
2018-03-28T20:14:32.671Z,2.90
2018-03-28T20:17:01.746Z,2.90
2018-03-28T20:19:30.824Z,2.90
2018-03-28T20:22:00.663Z,3.00
2018-03-28T20:24:29.738Z,2.90
2018-03-28T20:26:58.820Z,3.00
2018-03-28T20:29:27.898Z,3.00
2018-03-28T20:31:56.970Z,2.90
2018-03-28T20:34:26.045Z,2.90
2018-03-28T20:36:55.181Z,2.90
2018-03-28T20:39:24.319Z,2.90
2018-03-28T20:41:54.162Z,2.90
2018-03-28T20:44:23.289Z,2.90
2018-03-28T20:46:53.094Z,2.90
2018-03-28T20:49:22.930Z,2.90
2018-03-28T20:51:52.003Z,2.90
2018-03-28T20:54:21.109Z,2.90
2018-03-28T20:56:50.181Z,2.90
2018-03-28T20:59:19.394Z,2.90
2018-03-28T21:01:48.475Z,2.90
2018-03-28T21:04:17.598Z,2.90
2018-03-28T21:06:46.709Z,2.90
2018-03-28T21:09:15.782Z,2.90
2018-03-28T21:11:45.671Z,2.90
2018-03-28T21:14:14.769Z,2.90
2018-03-28T21:16:43.841Z,3.00
2018-03-28T21:19:13.682Z,2.90
2018-03-28T21:21:43.550Z,2.90
2018-03-28T21:24:12.614Z,2.90
2018-03-28T21:26:42.582Z,2.90
2018-03-28T21:29:11.658Z,2.90
2018-03-28T21:31:41.493Z,2.90
2018-03-28T21:34:11.326Z,3.00
2018-03-28T21:36:40.385Z,2.90
2018-03-28T21:39:09.621Z,2.90
2018-03-28T21:41:38.682Z,2.90
2018-03-28T21:44:07.786Z,3.00
2018-03-28T21:46:36.936Z,2.90
2018-03-28T21:49:06.106Z,3.00
2018-03-28T21:51:35.164Z,3.00
2018-03-28T21:54:04.225Z,3.00
2018-03-28T21:56:33.289Z,3.00
2018-03-28T21:59:02.358Z,3.00
2018-03-28T22:01:31.421Z,3.00
2018-03-28T22:04:01.250Z,2.90
2018-03-28T22:06:31.087Z,3.00
2018-03-28T22:09:00.949Z,3.00
2018-03-28T22:11:30.009Z,3.00
2018-03-28T22:13:59.069Z,3.00
2018-03-28T22:16:28.134Z,3.00
2018-03-28T22:18:58.041Z,3.00
2018-03-28T22:21:27.115Z,3.10
2018-03-28T22:23:56.222Z,3.10
2018-03-28T22:26:25.314Z,3.00
2018-03-28T22:28:54.372Z,3.00
2018-03-28T22:31:23.442Z,3.10
2018-03-28T22:36:27.795Z,3.10
2018-03-28T22:38:56.869Z,3.10
2018-03-28T22:41:26.148Z,3.10
2018-03-28T22:43:55.354Z,3.10
2018-03-28T22:46:24.422Z,3.10
2018-03-28T22:48:54.253Z,3.10
2018-03-28T22:51:23.382Z,3.10
2018-03-28T22:53:52.446Z,3.00
2018-03-28T22:56:21.509Z,3.10
2018-03-28T22:58:50.574Z,3.10
2018-03-28T23:01:19.638Z,3.10
2018-03-28T23:03:48.734Z,3.20
2018-03-28T23:06:18.109Z,3.20
2018-03-28T23:08:47.173Z,3.20
2018-03-28T23:11:16.278Z,3.20
2018-03-28T23:13:45.380Z,3.20
2018-03-28T23:16:14.479Z,3.20
2018-03-28T23:18:43.576Z,3.20
2018-03-28T23:21:13.597Z,3.20
2018-03-28T23:23:43.515Z,3.20
2018-03-28T23:26:12.574Z,3.20
2018-03-28T23:28:41.643Z,3.20
2018-03-28T23:31:10.764Z,3.30
2018-03-28T23:33:40.631Z,3.30
2018-03-28T23:36:09.741Z,3.30
2018-03-28T23:38:38.838Z,3.30
2018-03-28T23:41:07.970Z,3.30
2018-03-28T23:43:37.038Z,3.40
2018-03-28T23:46:06.926Z,3.30
2018-03-28T23:48:35.986Z,3.30
2018-03-28T23:51:05.814Z,3.40
2018-03-28T23:53:35.650Z,3.30
2018-03-28T23:56:04.709Z,3.30
2018-03-28T23:58:33.769Z,3.30
